Weather at Gideon Memorial Airport

Public forecast

Using degrees Fahrenheit for public forecast. Weather courtesy of forecast.io.

Closest aviation weather report (METAR) to Gideon Memorial Airport

Closest report is Kennett Memorial Airport, 14.6 nm (27.0 km) SSW. Retrieved 2021/07/28 01:35 UTC (13 minutes ago):

KTKX 280135Z AUTO 03004KT 7SM CLR 29/26 A2999 RMK AO2

Closest aviation forecast (TAF) to Gideon Memorial Airport

Closest forecast is Cape Girardeau Regional Airport, 49.6 nm (91.8 km) NNE. Retrieved 2021-07-28 00:39 UTC (1 hour ago):

TAF KCGI 272336Z 2800/2824 VRB03KT P6SM FEW040 FEW250 FM280800 00000KT 3SM BR SKC TEMPO 2809/2812 1 1/2SM BR FM281300 VRB02KT P6SM SKC